MSR799 HECA-LFPG
Flight info
| Callsign | MSR799 |
|---|---|
| Flight time | N/A |
| Altitude | 38000 |
| Route | CVO L617 NABSI M872 METRU UM872 LATAN DCT PES DCT LOMED DCT AOSTA DCT ORSUD DCT MOLUS DCT UNKIR DCT GIVRI/N0473F360 DCT TINIL |
| Aircraft | B77W/H-SDE1E2E3FGHIJ2J3J4J5M1RWXY/LB1D1 |
Departure
| Time | 2026-05-07 09:20 |
|---|---|
| Airport | Cairo International Airport (HECA) |
Arrival
| Time | N/A |
|---|---|
| Airport | Charles de Gaulle International Airport (LFPG) |
| Time | Latitude | Longitude | Altitude | Speed | Heading |
|---|---|---|---|---|---|
| 2026-05-07 08:54 | 30.10778 | 31.39525 | 375 ft | 0 kts | 75° |
| 2026-05-07 09:12 | 30.10775 | 31.39514 | 377 ft | 4 kts | 77° |
| 2026-05-07 09:12 | 30.10771 | 31.39484 | 376 ft | 4 kts | 88° |
| 2026-05-07 09:13 | 30.10772 | 31.39453 | 376 ft | 4 kts | 105° |
| 2026-05-07 09:13 | 30.10784 | 31.39428 | 375 ft | 4 kts | 151° |
| 2026-05-07 09:13 | 30.10790 | 31.39424 | 375 ft | 0 kts | 165° |
| 2026-05-07 09:16 | 30.10786 | 31.39426 | 375 ft | 2 kts | 165° |
| 2026-05-07 09:16 | 30.10748 | 31.39437 | 375 ft | 9 kts | 165° |
| 2026-05-07 09:16 | 30.10667 | 31.39461 | 375 ft | 14 kts | 165° |
| 2026-05-07 09:16 | 30.10610 | 31.39535 | 375 ft | 14 kts | 93° |
| 2026-05-07 09:17 | 30.10625 | 31.39644 | 376 ft | 14 kts | 83° |
| 2026-05-07 09:17 | 30.10572 | 31.39726 | 378 ft | 14 kts | 159° |
| 2026-05-07 09:17 | 30.10479 | 31.39759 | 379 ft | 14 kts | 163° |
| 2026-05-07 09:17 | 30.10386 | 31.39781 | 384 ft | 14 kts | 180° |
| 2026-05-07 09:18 | 30.10306 | 31.39724 | 389 ft | 14 kts | 226° |
| 2026-05-07 09:18 | 30.10242 | 31.39640 | 392 ft | 14 kts | 229° |
| 2026-05-07 09:18 | 30.10170 | 31.39571 | 390 ft | 14 kts | 184° |
| 2026-05-07 09:18 | 30.10088 | 31.39625 | 390 ft | 14 kts | 139° |
| 2026-05-07 09:19 | 30.10018 | 31.39704 | 393 ft | 14 kts | 122° |
| 2026-05-07 09:19 | 30.10006 | 31.39812 | 393 ft | 14 kts | 83° |
| 2026-05-07 09:19 | 30.10037 | 31.39919 | 393 ft | 14 kts | 53° |
| 2026-05-07 09:19 | 30.10099 | 31.40005 | 393 ft | 14 kts | 49° |
| 2026-05-07 09:20 | 30.10197 | 31.40135 | 393 ft | 47 kts | 49° |
| 2026-05-07 09:20 | 30.10601 | 31.40672 | 391 ft | 128 kts | 49° |
| 2026-05-07 09:20 | 30.11337 | 31.41636 | 469 ft | 182 kts | 47° |
| 2026-05-07 09:20 | 30.12211 | 31.42768 | 1090 ft | 194 kts | 46° |
| 2026-05-07 09:21 | 30.13153 | 31.43914 | 1870 ft | 197 kts | 42° |
| 2026-05-07 09:21 | 30.14294 | 31.44787 | 2636 ft | 204 kts | 16° |
| 2026-05-07 09:21 | 30.15769 | 31.44877 | 3080 ft | 229 kts | 350° |
| 2026-05-07 09:21 | 30.17425 | 31.44477 | 3670 ft | 251 kts | 345° |
| 2026-05-07 09:22 | 30.19146 | 31.43974 | 4596 ft | 258 kts | 341° |
| 2026-05-07 09:22 | 30.20697 | 31.42922 | 5498 ft | 261 kts | 316° |
| 2026-05-07 09:22 | 30.21963 | 31.41386 | 6402 ft | 268 kts | 312° |
| 2026-05-07 09:22 | 30.23026 | 31.40062 | 7290 ft | 270 kts | 312° |
| 2026-05-07 09:23 | 30.24307 | 31.38456 | 8370 ft | 273 kts | 312° |
| 2026-05-07 09:23 | 30.25599 | 31.36822 | 9403 ft | 278 kts | 312° |
| 2026-05-07 09:23 | 30.26914 | 31.35161 | 10381 ft | 283 kts | 312° |
| 2026-05-07 09:23 | 30.28292 | 31.33424 | 10975 ft | 303 kts | 312° |
| 2026-05-07 09:24 | 30.29793 | 31.31526 | 11230 ft | 335 kts | 312° |
| 2026-05-07 09:24 | 30.31440 | 31.29447 | 11547 ft | 362 kts | 312° |
| 2026-05-07 09:24 | 30.33138 | 31.27301 | 12349 ft | 373 kts | 312° |
| 2026-05-07 09:24 | 30.34906 | 31.25068 | 13326 ft | 378 kts | 312° |
| 2026-05-07 09:25 | 30.36694 | 31.22812 | 14387 ft | 381 kts | 311° |
| 2026-05-07 09:25 | 30.38494 | 31.20539 | 15426 ft | 385 kts | 311° |
| 2026-05-07 09:25 | 30.40314 | 31.18240 | 16394 ft | 389 kts | 311° |
| 2026-05-07 09:25 | 30.42153 | 31.15913 | 17301 ft | 394 kts | 311° |
| 2026-05-07 09:26 | 30.44015 | 31.13560 | 18185 ft | 399 kts | 311° |
| 2026-05-07 09:26 | 30.45901 | 31.11176 | 19039 ft | 403 kts | 311° |
| 2026-05-07 09:26 | 30.47805 | 31.08763 | 19866 ft | 408 kts | 311° |
| 2026-05-07 09:26 | 30.49728 | 31.06326 | 20670 ft | 412 kts | 310° |
| 2026-05-07 09:27 | 30.51675 | 31.03856 | 21427 ft | 417 kts | 310° |
| 2026-05-07 09:27 | 30.53641 | 31.01362 | 22173 ft | 421 kts | 310° |
| 2026-05-07 09:27 | 30.57630 | 30.96297 | 23562 ft | 430 kts | 310° |
| 2026-05-07 09:28 | 30.59657 | 30.93721 | 24200 ft | 434 kts | 310° |
| 2026-05-07 09:28 | 30.61701 | 30.91122 | 24838 ft | 438 kts | 310° |
| 2026-05-07 09:28 | 30.63764 | 30.88496 | 25484 ft | 442 kts | 310° |
| 2026-05-07 09:28 | 30.65842 | 30.85850 | 26118 ft | 444 kts | 310° |
| 2026-05-07 09:29 | 30.67936 | 30.83182 | 26722 ft | 447 kts | 310° |
| 2026-05-07 09:29 | 30.70039 | 30.80501 | 27273 ft | 451 kts | 310° |
| 2026-05-07 09:29 | 30.72159 | 30.77795 | 27783 ft | 455 kts | 310° |
| 2026-05-07 09:29 | 30.74295 | 30.75067 | 28309 ft | 457 kts | 310° |
| 2026-05-07 09:30 | 30.76440 | 30.72325 | 28798 ft | 460 kts | 310° |
| 2026-05-07 09:30 | 30.78342 | 30.69890 | 29199 ft | 462 kts | 310° |
| 2026-05-07 09:30 | 30.80586 | 30.67017 | 29657 ft | 465 kts | 310° |
| 2026-05-07 09:30 | 30.82762 | 30.64228 | 30093 ft | 466 kts | 310° |
| 2026-05-07 09:31 | 30.84938 | 30.61441 | 30640 ft | 464 kts | 310° |
| 2026-05-07 09:31 | 30.87101 | 30.58668 | 31191 ft | 462 kts | 310° |
| 2026-05-07 09:31 | 30.89262 | 30.55896 | 31704 ft | 461 kts | 310° |
| 2026-05-07 09:31 | 30.91411 | 30.53136 | 32196 ft | 460 kts | 309° |
| 2026-05-07 09:32 | 30.93559 | 30.50372 | 32662 ft | 459 kts | 309° |
| 2026-05-07 09:32 | 30.95703 | 30.47616 | 33116 ft | 459 kts | 309° |
| 2026-05-07 09:32 | 30.97844 | 30.44859 | 33572 ft | 457 kts | 309° |
| 2026-05-07 09:32 | 30.99973 | 30.42115 | 33999 ft | 456 kts | 309° |
| 2026-05-07 09:33 | 31.02102 | 30.39369 | 34403 ft | 456 kts | 309° |
| 2026-05-07 09:33 | 31.04211 | 30.36648 | 34759 ft | 456 kts | 309° |
| 2026-05-07 09:33 | 31.06292 | 30.33901 | 35106 ft | 455 kts | 306° |
| 2026-05-07 09:33 | 31.08088 | 30.30915 | 35453 ft | 452 kts | 299° |
| 2026-05-07 09:34 | 31.09574 | 30.27787 | 35812 ft | 450 kts | 294° |
| 2026-05-07 09:34 | 31.10845 | 30.24450 | 36168 ft | 448 kts | 288° |
| 2026-05-07 09:34 | 31.11795 | 30.21076 | 36453 ft | 448 kts | 286° |
| 2026-05-07 09:34 | 31.12729 | 30.17552 | 36720 ft | 449 kts | 285° |
| 2026-05-07 09:35 | 31.13646 | 30.14079 | 37146 ft | 445 kts | 286° |
| 2026-05-07 09:35 | 31.14542 | 30.10732 | 37685 ft | 439 kts | 286° |
| 2026-05-07 09:35 | 31.15393 | 30.07594 | 37982 ft | 438 kts | 286° |
| 2026-05-07 09:36 | 31.17073 | 30.01443 | 38093 ft | 445 kts | 286° |
| 2026-05-07 09:36 | 31.19239 | 29.95269 | 38101 ft | 447 kts | 295° |
| 2026-05-07 09:37 | 31.21328 | 29.90987 | 38105 ft | 444 kts | 301° |
| 2026-05-07 09:37 | 31.24576 | 29.85729 | 38101 ft | 444 kts | 304° |
| 2026-05-07 09:38 | 31.27596 | 29.80960 | 38103 ft | 443 kts | 304° |
| 2026-05-07 09:38 | 31.30614 | 29.76168 | 38096 ft | 442 kts | 303° |
| 2026-05-07 09:39 | 31.33498 | 29.71551 | 38105 ft | 442 kts | 303° |
| 2026-05-07 09:39 | 31.36633 | 29.66512 | 38102 ft | 443 kts | 303° |
| 2026-05-07 09:40 | 31.39131 | 29.62491 | 38103 ft | 443 kts | 303° |
| 2026-05-07 09:40 | 31.41919 | 29.57997 | 38095 ft | 444 kts | 303° |
| 2026-05-07 09:41 | 31.45252 | 29.52616 | 38102 ft | 445 kts | 303° |
| 2026-05-07 09:41 | 31.48827 | 29.46841 | 38100 ft | 446 kts | 303° |
| 2026-05-07 09:42 | 31.52448 | 29.40978 | 38113 ft | 446 kts | 303° |
| 2026-05-07 09:42 | 31.56086 | 29.35087 | 38111 ft | 447 kts | 303° |
| 2026-05-07 09:43 | 31.59713 | 29.29190 | 38110 ft | 446 kts | 303° |
| 2026-05-07 09:43 | 31.63320 | 29.23281 | 38110 ft | 446 kts | 303° |
| 2026-05-07 09:44 | 31.66865 | 29.17456 | 38108 ft | 445 kts | 303° |
| 2026-05-07 09:44 | 31.70461 | 29.11545 | 38108 ft | 445 kts | 303° |
| 2026-05-07 09:45 | 31.74003 | 29.05721 | 38112 ft | 444 kts | 303° |
| 2026-05-07 09:45 | 31.77602 | 28.99823 | 38109 ft | 444 kts | 303° |
| 2026-05-07 09:46 | 31.81199 | 28.93918 | 38109 ft | 443 kts | 303° |
| 2026-05-07 09:46 | 31.84764 | 28.88055 | 38112 ft | 443 kts | 303° |
| 2026-05-07 09:47 | 31.88320 | 28.82195 | 38108 ft | 443 kts | 303° |
| 2026-05-07 09:47 | 31.91870 | 28.76337 | 38111 ft | 443 kts | 303° |
| 2026-05-07 09:48 | 31.95402 | 28.70504 | 38109 ft | 443 kts | 303° |
| 2026-05-07 09:48 | 31.98971 | 28.64597 | 38110 ft | 442 kts | 303° |
| 2026-05-07 09:49 | 32.02476 | 28.58782 | 38107 ft | 442 kts | 303° |
| 2026-05-07 09:49 | 32.06034 | 28.52881 | 38111 ft | 442 kts | 303° |
| 2026-05-07 09:50 | 32.09580 | 28.46985 | 38113 ft | 443 kts | 303° |
| 2026-05-07 09:50 | 32.13135 | 28.41063 | 38117 ft | 442 kts | 303° |
| 2026-05-07 09:51 | 32.16683 | 28.35144 | 38151 ft | 441 kts | 303° |
| 2026-05-07 09:51 | 32.20212 | 28.29250 | 38151 ft | 441 kts | 303° |
| 2026-05-07 09:52 | 32.23754 | 28.23325 | 38140 ft | 441 kts | 303° |
| 2026-05-07 09:52 | 32.27290 | 28.17402 | 38149 ft | 441 kts | 303° |
| 2026-05-07 09:53 | 32.30822 | 28.11472 | 38145 ft | 441 kts | 303° |
| 2026-05-07 09:53 | 32.34349 | 28.05545 | 38151 ft | 441 kts | 303° |
| 2026-05-07 09:54 | 32.37285 | 28.00603 | 38147 ft | 441 kts | 303° |
| 2026-05-07 09:54 | 32.40813 | 27.94653 | 38147 ft | 442 kts | 303° |
| 2026-05-07 09:55 | 32.44338 | 27.88701 | 38147 ft | 442 kts | 303° |
| 2026-05-07 09:55 | 32.47864 | 27.82738 | 38144 ft | 442 kts | 303° |
| 2026-05-07 09:56 | 32.51381 | 27.76783 | 38147 ft | 442 kts | 303° |
| 2026-05-07 09:56 | 32.54899 | 27.70814 | 38151 ft | 442 kts | 303° |
| 2026-05-07 09:57 | 32.58392 | 27.64878 | 38145 ft | 442 kts | 303° |
| 2026-05-07 09:57 | 32.61919 | 27.58874 | 38131 ft | 442 kts | 303° |
| 2026-05-07 09:58 | 32.65398 | 27.52944 | 38138 ft | 442 kts | 303° |
| 2026-05-07 09:58 | 32.68897 | 27.46969 | 38149 ft | 442 kts | 303° |
| 2026-05-07 09:59 | 32.72403 | 27.40976 | 38147 ft | 442 kts | 303° |
| 2026-05-07 09:59 | 32.75899 | 27.34991 | 38132 ft | 442 kts | 303° |
| 2026-05-07 10:00 | 32.79400 | 27.28985 | 38132 ft | 442 kts | 303° |
| 2026-05-07 10:00 | 32.82896 | 27.22978 | 38130 ft | 442 kts | 303° |
| 2026-05-07 10:01 | 32.86389 | 27.16964 | 38130 ft | 442 kts | 303° |
| 2026-05-07 10:01 | 32.89874 | 27.10956 | 38129 ft | 442 kts | 303° |
| 2026-05-07 10:02 | 32.93354 | 27.04950 | 38131 ft | 442 kts | 303° |
| 2026-05-07 10:02 | 32.96842 | 26.98915 | 38133 ft | 442 kts | 303° |
| 2026-05-07 10:03 | 33.00321 | 26.92881 | 38129 ft | 442 kts | 303° |
| 2026-05-07 10:03 | 33.03791 | 26.86830 | 38130 ft | 442 kts | 303° |
| 2026-05-07 10:04 | 33.07236 | 26.80811 | 38131 ft | 442 kts | 303° |
| 2026-05-07 10:04 | 33.10696 | 26.74756 | 38128 ft | 442 kts | 303° |
| 2026-05-07 10:05 | 33.14158 | 26.68689 | 38127 ft | 442 kts | 303° |
| 2026-05-07 10:05 | 33.17622 | 26.62611 | 38120 ft | 443 kts | 303° |
| 2026-05-07 10:06 | 33.21086 | 26.56521 | 38119 ft | 443 kts | 303° |
| 2026-05-07 10:06 | 33.24547 | 26.50430 | 38120 ft | 443 kts | 303° |
| 2026-05-07 10:07 | 33.28000 | 26.44345 | 38118 ft | 443 kts | 303° |
| 2026-05-07 10:07 | 33.31448 | 26.38253 | 38116 ft | 443 kts | 303° |
| 2026-05-07 10:08 | 33.34872 | 26.32193 | 38109 ft | 443 kts | 303° |
| 2026-05-07 10:08 | 33.38320 | 26.26081 | 38112 ft | 443 kts | 303° |
| 2026-05-07 10:09 | 33.41759 | 26.19972 | 38113 ft | 442 kts | 303° |
| 2026-05-07 10:09 | 33.45200 | 26.13855 | 38109 ft | 442 kts | 303° |
| 2026-05-07 10:10 | 33.48626 | 26.07753 | 38111 ft | 442 kts | 303° |
| 2026-05-07 10:10 | 33.52046 | 26.01654 | 38107 ft | 443 kts | 303° |
| 2026-05-07 10:11 | 33.55476 | 25.95522 | 38103 ft | 443 kts | 303° |
| 2026-05-07 10:11 | 33.58902 | 25.89391 | 38103 ft | 443 kts | 303° |
| 2026-05-07 10:12 | 33.62316 | 25.83271 | 38105 ft | 443 kts | 303° |
| 2026-05-07 10:12 | 33.65733 | 25.77130 | 38095 ft | 443 kts | 303° |
| 2026-05-07 10:13 | 33.69149 | 25.70990 | 38104 ft | 443 kts | 303° |
| 2026-05-07 10:13 | 33.72567 | 25.64828 | 38101 ft | 443 kts | 303° |
| 2026-05-07 10:14 | 33.75980 | 25.58661 | 38102 ft | 443 kts | 303° |
| 2026-05-07 10:14 | 33.79394 | 25.52487 | 38102 ft | 443 kts | 303° |
| 2026-05-07 10:15 | 33.82801 | 25.46323 | 38103 ft | 443 kts | 303° |
| 2026-05-07 10:15 | 33.86204 | 25.40149 | 38104 ft | 443 kts | 303° |
| 2026-05-07 10:16 | 33.89603 | 25.33969 | 38102 ft | 443 kts | 303° |
| 2026-05-07 10:16 | 33.92998 | 25.27784 | 38100 ft | 443 kts | 303° |
| 2026-05-07 10:17 | 33.96390 | 25.21600 | 38102 ft | 442 kts | 303° |
| 2026-05-07 10:17 | 33.99901 | 25.15510 | 38102 ft | 443 kts | 308° |
| 2026-05-07 10:18 | 34.04147 | 25.10141 | 38115 ft | 443 kts | 316° |
| 2026-05-07 10:18 | 34.08642 | 25.05055 | 38111 ft | 444 kts | 316° |
| 2026-05-07 10:19 | 34.13109 | 24.99970 | 38120 ft | 448 kts | 316° |
| 2026-05-07 10:19 | 34.17668 | 24.94740 | 38122 ft | 456 kts | 315° |
| 2026-05-07 10:20 | 34.22270 | 24.89442 | 38112 ft | 457 kts | 315° |
| 2026-05-07 10:20 | 34.26863 | 24.84145 | 38109 ft | 456 kts | 315° |
| 2026-05-07 10:21 | 34.31447 | 24.78848 | 38112 ft | 455 kts | 315° |
| 2026-05-07 10:21 | 34.36016 | 24.73560 | 38111 ft | 454 kts | 315° |
| 2026-05-07 10:22 | 34.40574 | 24.68280 | 38111 ft | 453 kts | 315° |
| 2026-05-07 10:22 | 34.45116 | 24.63011 | 38111 ft | 452 kts | 315° |
| 2026-05-07 10:23 | 34.49655 | 24.57732 | 38103 ft | 452 kts | 315° |
| 2026-05-07 10:23 | 34.54168 | 24.52434 | 38103 ft | 452 kts | 315° |
| 2026-05-07 10:24 | 34.58606 | 24.47032 | 38103 ft | 451 kts | 314° |
| 2026-05-07 10:24 | 34.63024 | 24.41621 | 38100 ft | 451 kts | 314° |
| 2026-05-07 10:25 | 34.67456 | 24.36207 | 38103 ft | 452 kts | 314° |
| 2026-05-07 10:25 | 34.71891 | 24.30794 | 38102 ft | 452 kts | 314° |
| 2026-05-07 10:26 | 34.76325 | 24.25373 | 38098 ft | 452 kts | 314° |
| 2026-05-07 10:26 | 34.80731 | 24.19977 | 38104 ft | 453 kts | 314° |
| 2026-05-07 10:27 | 34.85166 | 24.14537 | 38100 ft | 453 kts | 314° |
| 2026-05-07 10:27 | 34.89595 | 24.09095 | 38106 ft | 452 kts | 314° |
| 2026-05-07 10:28 | 34.94020 | 24.03650 | 38108 ft | 452 kts | 314° |
| 2026-05-07 10:28 | 34.98446 | 23.98202 | 38110 ft | 452 kts | 314° |
| 2026-05-07 10:29 | 35.02874 | 23.92752 | 38116 ft | 452 kts | 314° |
| 2026-05-07 10:29 | 35.07302 | 23.87290 | 38109 ft | 452 kts | 314° |
| 2026-05-07 10:30 | 35.13935 | 23.79094 | 38110 ft | 452 kts | 314° |
| 2026-05-07 10:30 | 35.18351 | 23.73622 | 38109 ft | 452 kts | 314° |
| 2026-05-07 10:31 | 35.22777 | 23.68155 | 38107 ft | 452 kts | 316° |
| 2026-05-07 10:31 | 35.27500 | 23.63095 | 38109 ft | 451 kts | 319° |
| 2026-05-07 10:32 | 35.32289 | 23.58123 | 38112 ft | 451 kts | 319° |
| 2026-05-07 10:32 | 35.37062 | 23.53133 | 38116 ft | 451 kts | 319° |
| 2026-05-07 10:33 | 35.41828 | 23.48121 | 38110 ft | 451 kts | 319° |
| 2026-05-07 10:33 | 35.46588 | 23.43099 | 38111 ft | 452 kts | 319° |
| 2026-05-07 10:34 | 35.51318 | 23.38100 | 38113 ft | 452 kts | 319° |
| 2026-05-07 10:34 | 35.56056 | 23.33086 | 38113 ft | 452 kts | 319° |
| 2026-05-07 10:35 | 35.60803 | 23.28054 | 38111 ft | 452 kts | 319° |
| 2026-05-07 10:35 | 35.65560 | 23.23004 | 38112 ft | 452 kts | 319° |
| 2026-05-07 10:36 | 35.70313 | 23.17949 | 38118 ft | 452 kts | 319° |
| 2026-05-07 10:36 | 35.75061 | 23.12892 | 38121 ft | 452 kts | 319° |
| 2026-05-07 10:37 | 35.79806 | 23.07830 | 38121 ft | 452 kts | 319° |
| 2026-05-07 10:37 | 35.84557 | 23.02752 | 38120 ft | 452 kts | 319° |
| 2026-05-07 10:38 | 35.89312 | 22.97671 | 38120 ft | 453 kts | 319° |
| 2026-05-07 10:38 | 35.94072 | 22.92581 | 38121 ft | 453 kts | 319° |
| 2026-05-07 10:39 | 35.98822 | 22.87491 | 38127 ft | 452 kts | 319° |
| 2026-05-07 10:39 | 36.03571 | 22.82392 | 38131 ft | 452 kts | 319° |
| 2026-05-07 10:40 | 36.08322 | 22.77283 | 38129 ft | 452 kts | 319° |
| 2026-05-07 10:40 | 36.13065 | 22.72169 | 38129 ft | 452 kts | 319° |
| 2026-05-07 10:41 | 36.17806 | 22.67050 | 38129 ft | 452 kts | 319° |
| 2026-05-07 10:41 | 36.22543 | 22.61930 | 38129 ft | 452 kts | 319° |
| 2026-05-07 10:42 | 36.26484 | 22.57664 | 38122 ft | 453 kts | 319° |
| 2026-05-07 10:42 | 36.31228 | 22.52522 | 38119 ft | 453 kts | 319° |
| 2026-05-07 10:43 | 36.35964 | 22.47377 | 38119 ft | 453 kts | 319° |
| 2026-05-07 10:43 | 36.40689 | 22.42232 | 38110 ft | 452 kts | 318° |
| 2026-05-07 10:44 | 36.45420 | 22.37078 | 38108 ft | 452 kts | 318° |
| 2026-05-07 10:44 | 36.50138 | 22.31926 | 38107 ft | 452 kts | 318° |
| 2026-05-07 10:45 | 36.54865 | 22.26758 | 38101 ft | 452 kts | 318° |
| 2026-05-07 10:45 | 36.59585 | 22.21588 | 38091 ft | 452 kts | 318° |
| 2026-05-07 10:46 | 36.64299 | 22.16413 | 38086 ft | 452 kts | 318° |
| 2026-05-07 10:46 | 36.68982 | 22.11268 | 38080 ft | 452 kts | 318° |
| 2026-05-07 10:47 | 36.73691 | 22.06080 | 38082 ft | 452 kts | 318° |
| 2026-05-07 10:47 | 36.78404 | 22.00886 | 38082 ft | 452 kts | 318° |
| 2026-05-07 10:48 | 36.83107 | 21.95688 | 38080 ft | 452 kts | 318° |
| 2026-05-07 10:48 | 36.87811 | 21.90481 | 38083 ft | 452 kts | 318° |
| 2026-05-07 10:49 | 36.92512 | 21.85270 | 38091 ft | 452 kts | 318° |
| 2026-05-07 10:49 | 36.97211 | 21.80050 | 38080 ft | 452 kts | 318° |
| 2026-05-07 10:50 | 37.01911 | 21.74824 | 38093 ft | 452 kts | 318° |
| 2026-05-07 10:50 | 37.06608 | 21.69590 | 38080 ft | 452 kts | 318° |
| 2026-05-07 10:51 | 37.11299 | 21.64353 | 38090 ft | 452 kts | 318° |
| 2026-05-07 10:51 | 37.15987 | 21.59112 | 38082 ft | 452 kts | 318° |
| 2026-05-07 10:52 | 37.20676 | 21.53861 | 38078 ft | 451 kts | 318° |
| 2026-05-07 10:52 | 37.25352 | 21.48614 | 38090 ft | 451 kts | 318° |
| 2026-05-07 10:53 | 37.29984 | 21.43406 | 38096 ft | 450 kts | 317° |
| 2026-05-07 10:53 | 37.34645 | 21.38155 | 38095 ft | 449 kts | 317° |
| 2026-05-07 10:54 | 37.39293 | 21.32915 | 38106 ft | 449 kts | 317° |
| 2026-05-07 10:54 | 37.43942 | 21.27661 | 38111 ft | 449 kts | 317° |
| 2026-05-07 10:55 | 37.48475 | 21.22530 | 38118 ft | 450 kts | 317° |
| 2026-05-07 10:55 | 37.53124 | 21.17262 | 38123 ft | 450 kts | 317° |
| 2026-05-07 10:56 | 37.57776 | 21.11979 | 38131 ft | 450 kts | 317° |
| 2026-05-07 10:56 | 37.62431 | 21.06681 | 38129 ft | 451 kts | 317° |
| 2026-05-07 10:57 | 37.67084 | 21.01377 | 38129 ft | 451 kts | 317° |
| 2026-05-07 10:57 | 37.71742 | 20.96061 | 38129 ft | 451 kts | 317° |
| 2026-05-07 10:58 | 37.76394 | 20.90740 | 38131 ft | 451 kts | 317° |
| 2026-05-07 10:58 | 37.81047 | 20.85405 | 38128 ft | 451 kts | 317° |
| 2026-05-07 10:59 | 37.85695 | 20.80069 | 38127 ft | 451 kts | 317° |
| 2026-05-07 10:59 | 37.90342 | 20.74727 | 38128 ft | 451 kts | 317° |
| 2026-05-07 11:00 | 37.94978 | 20.69385 | 38130 ft | 450 kts | 317° |
| 2026-05-07 11:00 | 37.99610 | 20.64038 | 38131 ft | 450 kts | 317° |
| 2026-05-07 11:01 | 38.04236 | 20.58689 | 38129 ft | 450 kts | 317° |
| 2026-05-07 11:01 | 38.08858 | 20.53335 | 38129 ft | 450 kts | 317° |
| 2026-05-07 11:02 | 38.13443 | 20.47946 | 38131 ft | 449 kts | 315° |
| 2026-05-07 11:02 | 38.17886 | 20.42368 | 38132 ft | 449 kts | 314° |
| 2026-05-07 11:03 | 38.22324 | 20.36768 | 38128 ft | 449 kts | 314° |
| 2026-05-07 11:03 | 38.26777 | 20.31193 | 38128 ft | 449 kts | 315° |
| 2026-05-07 11:04 | 38.31206 | 20.25647 | 38130 ft | 449 kts | 314° |
| 2026-05-07 11:04 | 38.35648 | 20.20067 | 38128 ft | 449 kts | 314° |
| 2026-05-07 11:05 | 38.40093 | 20.14473 | 38130 ft | 449 kts | 314° |
| 2026-05-07 11:05 | 38.44534 | 20.08875 | 38130 ft | 449 kts | 314° |
| 2026-05-07 11:06 | 38.48973 | 20.03273 | 38127 ft | 449 kts | 314° |
| 2026-05-07 11:06 | 38.53408 | 19.97663 | 38130 ft | 449 kts | 314° |
| 2026-05-07 11:07 | 38.57843 | 19.92040 | 38129 ft | 449 kts | 314° |
| 2026-05-07 11:07 | 38.62283 | 19.86404 | 38128 ft | 449 kts | 314° |
| 2026-05-07 11:08 | 38.66714 | 19.80767 | 38131 ft | 450 kts | 314° |
| 2026-05-07 11:08 | 38.71147 | 19.75115 | 38130 ft | 450 kts | 314° |
| 2026-05-07 11:09 | 38.75579 | 19.69456 | 38130 ft | 450 kts | 314° |
| 2026-05-07 11:09 | 38.80012 | 19.63787 | 38131 ft | 450 kts | 314° |
| 2026-05-07 11:10 | 38.84442 | 19.58106 | 38128 ft | 450 kts | 314° |
| 2026-05-07 11:10 | 38.88869 | 19.52420 | 38129 ft | 450 kts | 314° |
| 2026-05-07 11:11 | 38.93263 | 19.46767 | 38129 ft | 450 kts | 314° |
| 2026-05-07 11:11 | 38.97683 | 19.41071 | 38123 ft | 450 kts | 314° |
| 2026-05-07 11:12 | 39.02100 | 19.35367 | 38120 ft | 450 kts | 314° |
| 2026-05-07 11:12 | 39.06518 | 19.29652 | 38121 ft | 450 kts | 314° |
| 2026-05-07 11:13 | 39.10929 | 19.23935 | 38122 ft | 450 kts | 314° |
| 2026-05-07 11:13 | 39.15348 | 19.18194 | 38120 ft | 451 kts | 314° |
| 2026-05-07 11:14 | 39.19759 | 19.12457 | 38120 ft | 451 kts | 314° |
| 2026-05-07 11:14 | 39.24170 | 19.06705 | 38125 ft | 451 kts | 314° |
| 2026-05-07 11:15 | 39.28580 | 19.00943 | 38118 ft | 451 kts | 314° |
| 2026-05-07 11:15 | 39.32896 | 18.95074 | 38121 ft | 451 kts | 311° |
| 2026-05-07 11:16 | 39.37088 | 18.89052 | 38118 ft | 451 kts | 311° |
| 2026-05-07 11:16 | 39.41276 | 18.83016 | 38113 ft | 451 kts | 311° |
| 2026-05-07 11:17 | 39.45481 | 18.76986 | 38111 ft | 451 kts | 311° |
| 2026-05-07 11:17 | 39.49671 | 18.70989 | 38111 ft | 453 kts | 311° |
| 2026-05-07 11:18 | 39.53939 | 18.64877 | 38113 ft | 455 kts | 311° |
| 2026-05-07 11:18 | 39.58195 | 18.58772 | 38112 ft | 457 kts | 311° |
| 2026-05-07 11:19 | 39.62458 | 18.52644 | 38111 ft | 458 kts | 311° |
| 2026-05-07 11:19 | 39.66701 | 18.46530 | 38104 ft | 459 kts | 311° |
| 2026-05-07 11:20 | 39.70971 | 18.40368 | 38102 ft | 459 kts | 311° |
| 2026-05-07 11:20 | 39.75235 | 18.34199 | 38099 ft | 459 kts | 311° |
| 2026-05-07 11:21 | 39.79495 | 18.28022 | 38099 ft | 458 kts | 311° |
| 2026-05-07 11:21 | 39.83749 | 18.21844 | 38103 ft | 458 kts | 311° |
| 2026-05-07 11:22 | 39.87994 | 18.15666 | 38102 ft | 458 kts | 311° |
| 2026-05-07 11:22 | 39.92238 | 18.09476 | 38098 ft | 458 kts | 310° |
| 2026-05-07 11:23 | 39.96475 | 18.03285 | 38106 ft | 458 kts | 310° |
| 2026-05-07 11:23 | 40.00712 | 17.97081 | 38096 ft | 458 kts | 310° |
| 2026-05-07 11:24 | 40.04942 | 17.90873 | 38103 ft | 458 kts | 310° |
| 2026-05-07 11:24 | 40.09171 | 17.84657 | 38102 ft | 457 kts | 310° |
| 2026-05-07 11:25 | 40.13390 | 17.78441 | 38101 ft | 457 kts | 310° |
| 2026-05-07 11:25 | 40.17611 | 17.72209 | 38096 ft | 458 kts | 310° |
| 2026-05-07 11:26 | 40.21826 | 17.65974 | 38093 ft | 458 kts | 310° |
| 2026-05-07 11:26 | 40.26041 | 17.59726 | 38080 ft | 457 kts | 310° |
| 2026-05-07 11:27 | 40.30247 | 17.53482 | 38088 ft | 457 kts | 310° |
| 2026-05-07 11:27 | 40.34454 | 17.47224 | 38081 ft | 458 kts | 310° |
| 2026-05-07 11:28 | 40.38632 | 17.40989 | 38079 ft | 458 kts | 310° |
| 2026-05-07 11:28 | 40.42837 | 17.34705 | 38075 ft | 458 kts | 310° |
| 2026-05-07 11:29 | 40.47042 | 17.28409 | 38078 ft | 459 kts | 310° |
| 2026-05-07 11:29 | 40.51248 | 17.22096 | 38077 ft | 459 kts | 310° |
| 2026-05-07 11:30 | 40.55442 | 17.15790 | 38081 ft | 458 kts | 310° |
| 2026-05-07 11:30 | 40.59639 | 17.09466 | 38092 ft | 458 kts | 310° |
| 2026-05-07 11:31 | 40.63826 | 17.03145 | 38093 ft | 458 kts | 310° |
| 2026-05-07 11:31 | 40.68011 | 16.96811 | 38101 ft | 458 kts | 310° |
| 2026-05-07 11:32 | 40.73572 | 16.88378 | 38101 ft | 458 kts | 310° |
| 2026-05-07 11:33 | 40.77748 | 16.82029 | 38098 ft | 458 kts | 310° |
| 2026-05-07 11:33 | 40.81924 | 16.75668 | 38102 ft | 459 kts | 310° |
| 2026-05-07 11:34 | 40.86102 | 16.69292 | 38102 ft | 459 kts | 310° |
| 2026-05-07 11:34 | 40.90269 | 16.62912 | 38095 ft | 459 kts | 310° |
| 2026-05-07 11:35 | 40.94441 | 16.56516 | 38089 ft | 459 kts | 309° |
| 2026-05-07 11:35 | 40.98608 | 16.50111 | 38081 ft | 459 kts | 309° |
| 2026-05-07 11:36 | 41.02771 | 16.43704 | 38085 ft | 459 kts | 309° |
| 2026-05-07 11:36 | 41.06932 | 16.37282 | 38082 ft | 459 kts | 309° |
| 2026-05-07 11:37 | 41.11081 | 16.30868 | 38080 ft | 458 kts | 309° |
| 2026-05-07 11:37 | 41.15227 | 16.24443 | 38089 ft | 458 kts | 309° |
| 2026-05-07 11:38 | 41.19369 | 16.18013 | 38083 ft | 458 kts | 309° |
| 2026-05-07 11:38 | 41.23480 | 16.11616 | 38082 ft | 459 kts | 309° |
| 2026-05-07 11:39 | 41.27648 | 16.05117 | 38082 ft | 459 kts | 309° |
| 2026-05-07 11:39 | 41.31754 | 15.98698 | 38081 ft | 459 kts | 309° |
| 2026-05-07 11:40 | 41.35878 | 15.92238 | 38082 ft | 459 kts | 309° |
| 2026-05-07 11:40 | 41.40013 | 15.85748 | 38080 ft | 459 kts | 309° |
| 2026-05-07 11:41 | 41.44139 | 15.79258 | 38081 ft | 459 kts | 309° |
| 2026-05-07 11:41 | 41.48261 | 15.72760 | 38073 ft | 459 kts | 309° |
| 2026-05-07 11:42 | 41.52383 | 15.66251 | 38075 ft | 459 kts | 309° |
| 2026-05-07 11:42 | 41.56494 | 15.59743 | 38077 ft | 459 kts | 309° |
| 2026-05-07 11:43 | 41.60600 | 15.53228 | 38071 ft | 459 kts | 309° |
| 2026-05-07 11:43 | 41.64706 | 15.46699 | 38062 ft | 459 kts | 309° |
| 2026-05-07 11:44 | 41.68808 | 15.40160 | 38056 ft | 459 kts | 309° |
| 2026-05-07 11:44 | 41.72908 | 15.33614 | 38062 ft | 459 kts | 309° |
| 2026-05-07 11:45 | 41.77006 | 15.27056 | 38066 ft | 459 kts | 309° |
| 2026-05-07 11:45 | 41.81098 | 15.20491 | 38066 ft | 459 kts | 309° |
| 2026-05-07 11:46 | 41.85163 | 15.13959 | 38062 ft | 459 kts | 308° |
| 2026-05-07 11:46 | 41.89256 | 15.07366 | 38055 ft | 460 kts | 308° |
| 2026-05-07 11:47 | 41.93317 | 15.00809 | 38053 ft | 460 kts | 308° |
| 2026-05-07 11:47 | 41.97408 | 14.94190 | 38059 ft | 460 kts | 308° |
| 2026-05-07 11:48 | 42.01483 | 14.87584 | 38051 ft | 460 kts | 308° |
| 2026-05-07 11:48 | 42.05568 | 14.80940 | 38057 ft | 461 kts | 308° |
| 2026-05-07 11:49 | 42.09430 | 14.74646 | 38055 ft | 461 kts | 308° |
| 2026-05-07 11:49 | 42.13518 | 14.67975 | 38060 ft | 462 kts | 308° |
| 2026-05-07 11:50 | 42.17561 | 14.61363 | 38054 ft | 462 kts | 308° |
| 2026-05-07 11:50 | 42.21651 | 14.54659 | 38056 ft | 461 kts | 308° |
| 2026-05-07 11:51 | 42.25687 | 14.48022 | 38051 ft | 461 kts | 308° |
| 2026-05-07 11:51 | 42.29751 | 14.41327 | 38057 ft | 461 kts | 308° |
| 2026-05-07 11:52 | 42.33815 | 14.34619 | 38051 ft | 462 kts | 308° |
| 2026-05-07 11:52 | 42.37879 | 14.27894 | 38044 ft | 462 kts | 308° |
| 2026-05-07 11:53 | 42.41937 | 14.21166 | 38044 ft | 462 kts | 308° |
| 2026-05-07 11:53 | 42.45852 | 14.14282 | 38047 ft | 461 kts | 304° |
| 2026-05-07 11:54 | 42.49556 | 14.07208 | 38045 ft | 461 kts | 304° |
| 2026-05-07 11:54 | 42.53248 | 14.00092 | 38046 ft | 461 kts | 304° |
| 2026-05-07 11:55 | 42.56949 | 13.92991 | 38045 ft | 461 kts | 304° |
| 2026-05-07 11:55 | 42.60655 | 13.85892 | 38058 ft | 461 kts | 304° |
| 2026-05-07 11:56 | 42.64338 | 13.78826 | 38056 ft | 462 kts | 304° |
| 2026-05-07 11:56 | 42.68047 | 13.71693 | 38056 ft | 463 kts | 304° |
| 2026-05-07 11:57 | 42.71758 | 13.64539 | 38060 ft | 463 kts | 304° |
| 2026-05-07 11:57 | 42.75457 | 13.57387 | 38064 ft | 463 kts | 304° |
| 2026-05-07 11:58 | 42.79160 | 13.50215 | 38067 ft | 464 kts | 304° |
| 2026-05-07 11:58 | 42.82866 | 13.43018 | 38065 ft | 464 kts | 303° |
| 2026-05-07 11:59 | 42.86571 | 13.35801 | 38066 ft | 465 kts | 303° |
| 2026-05-07 11:59 | 42.90274 | 13.28575 | 38061 ft | 465 kts | 303° |
| 2026-05-07 12:00 | 42.93974 | 13.21339 | 38064 ft | 465 kts | 303° |
| 2026-05-07 12:00 | 42.97680 | 13.14069 | 38058 ft | 466 kts | 303° |
| 2026-05-07 12:01 | 43.01382 | 13.06793 | 38061 ft | 467 kts | 303° |
| 2026-05-07 12:01 | 43.05087 | 12.99498 | 38055 ft | 467 kts | 303° |
| 2026-05-07 12:02 | 43.08782 | 12.92195 | 38052 ft | 467 kts | 303° |
| 2026-05-07 12:02 | 43.12471 | 12.84888 | 38044 ft | 467 kts | 303° |
| 2026-05-07 12:03 | 43.16159 | 12.77567 | 38052 ft | 467 kts | 303° |
| 2026-05-07 12:03 | 43.19782 | 12.70356 | 38043 ft | 467 kts | 303° |
| 2026-05-07 12:04 | 43.23435 | 12.63072 | 38044 ft | 466 kts | 303° |
| 2026-05-07 12:04 | 43.27099 | 12.55741 | 38047 ft | 466 kts | 303° |
| 2026-05-07 12:05 | 43.30761 | 12.48397 | 38049 ft | 466 kts | 303° |
| 2026-05-07 12:05 | 43.34417 | 12.41043 | 38042 ft | 466 kts | 303° |
| 2026-05-07 12:06 | 43.38071 | 12.33683 | 38037 ft | 466 kts | 303° |
| 2026-05-07 12:06 | 43.41717 | 12.26320 | 38039 ft | 466 kts | 302° |
| 2026-05-07 12:07 | 43.45359 | 12.18948 | 38024 ft | 466 kts | 302° |
| 2026-05-07 12:07 | 43.48994 | 12.11567 | 38021 ft | 466 kts | 302° |
| 2026-05-07 12:08 | 43.52630 | 12.04164 | 38015 ft | 466 kts | 302° |
| 2026-05-07 12:08 | 43.56253 | 11.96771 | 38010 ft | 466 kts | 302° |
| 2026-05-07 12:09 | 43.59878 | 11.89357 | 38005 ft | 466 kts | 302° |
| 2026-05-07 12:09 | 43.63503 | 11.81923 | 37994 ft | 467 kts | 302° |
| 2026-05-07 12:10 | 43.67120 | 11.74484 | 37999 ft | 466 kts | 302° |
| 2026-05-07 12:10 | 43.70707 | 11.67092 | 37990 ft | 466 kts | 302° |
| 2026-05-07 12:11 | 43.74309 | 11.59648 | 37988 ft | 466 kts | 302° |
| 2026-05-07 12:11 | 43.77900 | 11.52211 | 38000 ft | 466 kts | 302° |
| 2026-05-07 12:12 | 43.81495 | 11.44743 | 37985 ft | 466 kts | 302° |
| 2026-05-07 12:12 | 43.85085 | 11.37265 | 37992 ft | 466 kts | 302° |
| 2026-05-07 12:13 | 43.88667 | 11.29789 | 37989 ft | 466 kts | 302° |
| 2026-05-07 12:13 | 43.92237 | 11.22314 | 38002 ft | 466 kts | 302° |
| 2026-05-07 12:14 | 43.95817 | 11.14804 | 38006 ft | 466 kts | 301° |
| 2026-05-07 12:14 | 43.99378 | 11.07308 | 38000 ft | 466 kts | 301° |
| 2026-05-07 12:15 | 44.02942 | 10.99797 | 38008 ft | 467 kts | 302° |
| 2026-05-07 12:15 | 44.06651 | 10.92410 | 38033 ft | 468 kts | 304° |
| 2026-05-07 12:16 | 44.10153 | 10.85692 | 38036 ft | 468 kts | 304° |
| 2026-05-07 12:16 | 44.13962 | 10.78340 | 38053 ft | 469 kts | 303° |
| 2026-05-07 12:17 | 44.17505 | 10.71431 | 38063 ft | 469 kts | 303° |
| 2026-05-07 12:17 | 44.21281 | 10.64019 | 38073 ft | 470 kts | 303° |
| 2026-05-07 12:18 | 44.24793 | 10.57101 | 38071 ft | 470 kts | 303° |
| 2026-05-07 12:18 | 44.28570 | 10.49646 | 38070 ft | 470 kts | 303° |
| 2026-05-07 12:19 | 44.31825 | 10.43210 | 38053 ft | 470 kts | 303° |
| 2026-05-07 12:19 | 44.35581 | 10.35764 | 38036 ft | 470 kts | 303° |
| 2026-05-07 12:20 | 44.38604 | 10.29755 | 38031 ft | 470 kts | 303° |
| 2026-05-07 12:20 | 44.42824 | 10.21345 | 38012 ft | 470 kts | 303° |
| 2026-05-07 12:21 | 44.45892 | 10.15218 | 38001 ft | 469 kts | 303° |
| 2026-05-07 12:21 | 44.49028 | 10.08942 | 37990 ft | 469 kts | 303° |
| 2026-05-07 12:22 | 44.52481 | 10.02016 | 37989 ft | 469 kts | 302° |
| 2026-05-07 12:22 | 44.56151 | 9.94637 | 37981 ft | 469 kts | 302° |
| 2026-05-07 12:23 | 44.59686 | 9.87508 | 37971 ft | 469 kts | 302° |
| 2026-05-07 12:23 | 44.63283 | 9.80233 | 37955 ft | 469 kts | 302° |
| 2026-05-07 12:24 | 44.66668 | 9.73379 | 37969 ft | 469 kts | 302° |
| 2026-05-07 12:24 | 44.70229 | 9.66147 | 37976 ft | 470 kts | 302° |
| 2026-05-07 12:25 | 44.73613 | 9.59261 | 37957 ft | 470 kts | 302° |
| 2026-05-07 12:25 | 44.77047 | 9.52251 | 37985 ft | 470 kts | 302° |
| 2026-05-07 12:26 | 44.80227 | 9.45745 | 37986 ft | 471 kts | 302° |
| 2026-05-07 12:26 | 44.83779 | 9.38464 | 37979 ft | 472 kts | 302° |
| 2026-05-07 12:27 | 44.87494 | 9.30823 | 37984 ft | 472 kts | 302° |
| 2026-05-07 12:27 | 44.91201 | 9.23182 | 37978 ft | 473 kts | 302° |
| 2026-05-07 12:28 | 44.94906 | 9.15522 | 37976 ft | 473 kts | 302° |
| 2026-05-07 12:28 | 44.98612 | 9.07843 | 37985 ft | 473 kts | 302° |